Time;durP1;ratioP1;P1;durP2;ratioP2;P2;SDS_P1;SDS_P2;PMS_P1;PMS_P2;Temp;Humidity;BMP_temperature;BMP_pressure;BME280_temperature;BME280_humidity;BME280_pressure;Samples;Min_cycle;Max_cycle;Signal;HPM_P1;HPM_P2
2022/11/11 00:04:10;;;;;;;8.03;7.30;;;9.90;99.90;;;;;;10276121;28;20196;-80
2022/11/11 00:09:30;;;;;;;7.43;6.80;;;9.80;99.90;;;;;;10285759;28;20290;-80
2022/11/11 00:14:53;;;;;;;8.53;7.93;;;9.80;99.90;;;;;;10293316;28;20672;-80
2022/11/11 00:25:52;;;;;;;7.50;6.80;;;9.80;99.90;;;;;;10264384;28;20191;-80
2022/11/11 00:31:14;;;;;;;7.20;6.60;;;9.80;99.90;;;;;;10337281;28;20212;-80
2022/11/11 00:36:35;;;;;;;7.30;6.60;;;9.80;99.90;;;;;;10337799;28;20215;-80
2022/11/11 00:41:55;;;;;;;8.20;7.00;;;9.70;99.90;;;;;;10339140;28;20207;-80
2022/11/11 00:52:57;;;;;;;8.50;7.37;;;9.70;99.90;;;;;;10336868;28;20676;-80
2022/11/11 00:58:21;;;;;;;7.17;6.47;;;9.60;99.90;;;;;;10337586;28;20206;-80
2022/11/11 01:03:43;;;;;;;7.17;6.50;;;9.60;99.90;;;;;;10340553;28;20647;-79
2022/11/11 01:09:06;;;;;;;10.53;6.70;;;9.70;99.90;;;;;;10337104;28;20214;-80
2022/11/11 01:14:26;;;;;;;8.07;6.90;;;9.70;99.90;;;;;;10335658;28;20274;-80
2022/11/11 01:19:48;;;;;;;7.37;6.43;;;9.60;99.90;;;;;;10336235;28;20269;-79
2022/11/11 01:25:08;;;;;;;7.10;6.50;;;9.60;99.90;;;;;;10334903;28;20202;-80
2022/11/11 01:30:30;;;;;;;7.40;6.90;;;9.60;99.90;;;;;;10334393;28;20203;-80
2022/11/11 01:35:53;;;;;;;8.63;6.73;;;9.60;99.90;;;;;;10335400;28;20664;-79
2022/11/11 01:41:34;;;;;;;7.00;6.37;;;9.60;99.90;;;;;;10336153;28;20219;-79
2022/11/11 01:46:58;;;;;;;9.37;7.47;;;9.60;99.90;;;;;;10259533;28;20189;-80
2022/11/11 01:52:26;;;;;;;7.70;7.10;;;9.60;99.90;;;;;;10333265;28;20250;-80
2022/11/11 01:57:53;;;;;;;8.07;6.43;;;9.60;99.90;;;;;;10332860;28;20211;-79
2022/11/11 02:03:15;;;;;;;7.67;6.97;;;9.60;99.90;;;;;;10328415;28;20236;-79
2022/11/11 02:08:38;;;;;;;7.37;6.67;;;9.60;99.90;;;;;;10340522;28;20281;-80
2022/11/11 02:19:45;;;;;;;7.83;6.77;;;9.60;99.90;;;;;;10338985;28;20223;-79
2022/11/11 02:25:10;;;;;;;6.30;5.80;;;9.60;99.90;;;;;;10321976;28;20203;-80
2022/11/11 02:30:31;;;;;;;12.67;9.13;;;9.50;99.90;;;;;;10339161;28;20211;-80
2022/11/11 02:35:55;;;;;;;11.90;10.70;;;9.50;99.90;;;;;;10321399;28;20195;-80
2022/11/11 02:46:57;;;;;;;8.63;7.80;;;9.40;99.90;;;;;;10338160;28;20175;-80
2022/11/11 02:52:17;;;;;;;7.93;7.17;;;9.40;99.90;;;;;;10339868;28;20321;-80
2022/11/11 02:57:39;;;;;;;8.40;7.60;;;9.40;99.90;;;;;;10339570;28;20207;-80
2022/11/11 03:03:00;;;;;;;8.63;7.73;;;9.40;99.90;;;;;;10258293;28;20216;-80
2022/11/11 03:08:20;;;;;;;10.67;8.00;;;9.40;99.90;;;;;;10323939;28;20191;-80
2022/11/11 03:13:42;;;;;;;8.23;7.60;;;9.40;99.90;;;;;;10321653;28;20226;-79
2022/11/11 03:19:03;;;;;;;14.87;12.47;;;9.40;99.90;;;;;;10339388;28;20269;-80
2022/11/11 03:24:24;;;;;;;9.17;8.30;;;9.40;99.90;;;;;;10339624;28;20199;-80
2022/11/11 03:29:45;;;;;;;8.67;8.00;;;9.40;99.90;;;;;;10320857;28;20211;-80
2022/11/11 03:35:06;;;;;;;7.47;6.80;;;9.50;99.90;;;;;;10339440;28;20206;-80
2022/11/11 03:40:27;;;;;;;7.67;7.10;;;9.40;99.90;;;;;;10315939;28;20327;-80
2022/11/11 03:45:50;;;;;;;8.50;7.57;;;9.40;99.90;;;;;;10294716;28;20202;-80
2022/11/11 03:51:10;;;;;;;8.03;7.40;;;9.40;99.90;;;;;;10342142;28;20654;-80
2022/11/11 03:56:31;;;;;;;8.20;7.60;;;9.40;99.90;;;;;;10355491;28;20215;-80
2022/11/11 04:30:21;;;;;;;11.13;10.23;;;9.20;99.90;;;;;;10333313;28;20199;-80
2022/11/11 04:35:42;;;;;;;8.30;7.80;;;9.20;99.90;;;;;;10334067;28;20228;-80
2022/11/11 04:41:03;;;;;;;8.87;8.07;;;9.20;99.90;;;;;;10336268;28;20222;-80
2022/11/11 04:46:24;;;;;;;11.00;10.00;;;9.20;99.90;;;;;;10335272;28;20194;-80
2022/11/11 04:57:26;;;;;;;10.50;9.83;;;9.20;99.90;;;;;;10335379;28;20233;-80
2022/11/11 05:25:32;;;;;;;11.20;10.20;;;9.00;99.90;;;;;;10255985;28;20173;-80
2022/11/11 05:30:53;;;;;;;10.37;9.67;;;9.00;99.90;;;;;;10333445;28;20210;-79
2022/11/11 05:36:13;;;;;;;10.00;9.20;;;9.00;99.90;;;;;;10333551;28;20565;-79
2022/11/11 05:41:35;;;;;;;9.80;9.00;;;9.00;99.90;;;;;;10323502;28;20258;-77
2022/11/11 05:46:56;;;;;;;11.47;10.53;;;8.90;99.90;;;;;;10336756;28;20206;-77
2022/11/11 05:52:17;;;;;;;10.33;9.63;;;8.90;99.90;;;;;;10336505;28;20683;-79
2022/11/11 05:57:39;;;;;;;12.20;11.30;;;8.90;99.90;;;;;;10335946;28;20285;-79
2022/11/11 06:03:02;;;;;;;11.27;10.30;;;8.90;99.90;;;;;;10338362;28;20743;-79
2022/11/11 06:08:23;;;;;;;9.63;8.73;;;9.00;99.90;;;;;;10290656;28;20202;-78
2022/11/11 06:13:45;;;;;;;10.60;9.80;;;9.00;99.90;;;;;;10283175;28;20194;-79
2022/11/11 06:19:05;;;;;;;10.43;9.73;;;9.00;99.90;;;;;;10282505;28;20240;-79
2022/11/11 06:24:26;;;;;;;10.93;10.17;;;8.90;99.90;;;;;;10282358;28;20215;-79
2022/11/11 06:29:53;;;;;;;11.60;10.70;;;8.90;99.90;;;;;;10276587;28;20204;-79
2022/11/11 06:35:14;;;;;;;11.97;10.77;;;8.90;99.90;;;;;;10284276;28;20192;-79
2022/11/11 06:40:35;;;;;;;10.10;9.30;;;8.90;99.90;;;;;;10309999;28;20218;-79
2022/11/11 06:45:57;;;;;;;9.23;8.43;;;8.90;99.90;;;;;;10289879;28;20195;-79
2022/11/11 06:51:18;;;;;;;11.50;10.30;;;8.90;99.90;;;;;;10335155;28;20217;-80
2022/11/11 06:56:38;;;;;;;9.90;9.40;;;8.90;99.90;;;;;;10339009;28;20211;-80
2022/11/11 07:02:00;;;;;;;15.80;14.27;;;8.90;99.90;;;;;;10248365;28;20239;-80
2022/11/11 07:07:21;;;;;;;11.30;10.50;;;9.00;99.90;;;;;;10350707;28;20195;-80
2022/11/11 07:12:42;;;;;;;11.37;10.57;;;9.00;99.90;;;;;;10337998;28;20709;-80
2022/11/11 07:18:05;;;;;;;12.13;10.47;;;9.10;99.90;;;;;;10321150;28;20234;-80
2022/11/11 07:23:26;;;;;;;12.10;11.20;;;9.20;99.90;;;;;;10335616;28;20251;-80
2022/11/11 07:28:49;;;;;;;12.70;11.47;;;9.30;99.90;;;;;;10335152;28;20318;-80
2022/11/11 07:34:11;;;;;;;10.83;10.03;;;9.40;99.90;;;;;;10334739;28;20203;-80
2022/11/11 07:39:31;;;;;;;11.97;11.17;;;9.50;99.90;;;;;;10334502;28;20245;-80
2022/11/11 07:44:52;;;;;;;12.43;11.47;;;9.60;99.90;;;;;;10335458;28;20218;-80
2022/11/11 07:50:14;;;;;;;14.97;13.67;;;9.70;99.90;;;;;;10316182;28;20301;-79
2022/11/11 07:55:34;;;;;;;13.40;12.50;;;9.80;99.90;;;;;;10335074;28;20195;-80
2022/11/11 08:00:55;;;;;;;13.87;12.47;;;10.00;99.90;;;;;;10315830;28;20604;-80
2022/11/11 08:06:17;;;;;;;11.90;10.90;;;10.10;99.90;;;;;;10334642;28;20301;-81
2022/11/11 08:17:16;;;;;;;16.80;15.23;;;10.30;99.90;;;;;;10332824;28;20211;-80
2022/11/11 08:22:39;;;;;;;14.00;12.80;;;10.40;99.90;;;;;;10315979;28;20239;-80
2022/11/11 08:28:01;;;;;;;12.03;11.13;;;10.50;99.90;;;;;;10332500;28;20629;-80
2022/11/11 08:33:22;;;;;;;12.50;11.40;;;10.50;99.90;;;;;;10332542;28;20301;-80
2022/11/11 08:38:44;;;;;;;13.00;12.00;;;10.60;99.90;;;;;;10254471;28;20223;-80
2022/11/11 08:44:04;;;;;;;11.13;10.23;;;10.60;99.90;;;;;;10336631;28;20183;-80
2022/11/11 08:49:25;;;;;;;11.60;10.67;;;10.60;99.90;;;;;;10335734;28;20687;-79
2022/11/11 08:54:47;;;;;;;13.23;12.13;;;10.60;99.90;;;;;;10334116;28;20194;-79
2022/11/11 09:00:09;;;;;;;15.17;11.10;;;10.60;99.90;;;;;;10318283;28;20314;-80
2022/11/11 09:05:30;;;;;;;10.97;10.20;;;10.60;99.90;;;;;;10334760;28;20195;-79
2022/11/11 09:10:52;;;;;;;15.27;14.07;;;10.60;99.90;;;;;;10337528;28;20301;-79
2022/11/11 09:16:12;;;;;;;17.20;15.40;;;10.60;99.90;;;;;;10335309;28;20730;-80
2022/11/11 09:21:33;;;;;;;18.33;12.60;;;10.70;99.90;;;;;;10316007;28;20289;-80
2022/11/11 09:26:55;;;;;;;14.57;13.37;;;10.70;99.90;;;;;;10299924;28;20257;-80
2022/11/11 09:32:15;;;;;;;14.83;13.50;;;10.70;99.90;;;;;;10338385;28;20281;-80
2022/11/11 09:37:36;;;;;;;14.83;13.40;;;10.80;99.90;;;;;;10337381;28;20205;-80
2022/11/11 09:43:09;;;;;;;13.40;10.83;;;10.90;99.90;;;;;;10334245;28;20771;-79
2022/11/11 09:48:40;;;;;;;13.97;12.70;;;10.90;99.90;;;;;;10337176;28;20187;-80
2022/11/11 09:54:06;;;;;;;14.47;13.27;;;11.00;99.90;;;;;;10338498;28;20199;-80
2022/11/11 09:59:34;;;;;;;15.90;14.30;;;11.10;99.90;;;;;;10318862;28;20223;-79
2022/11/11 10:05:03;;;;;;;16.13;13.67;;;11.20;99.90;;;;;;10260316;29;20697;-79
2022/11/11 10:10:30;;;;;;;15.50;14.03;;;11.30;99.90;;;;;;10260257;28;20330;-80
2022/11/11 10:16:03;;;;;;;16.17;14.87;;;11.40;99.90;;;;;;10337419;28;20191;-80
2022/11/11 10:21:31;;;;;;;13.77;12.53;;;11.50;99.90;;;;;;10333826;28;20578;-80
2022/11/11 10:26:52;;;;;;;13.97;12.67;;;11.60;99.90;;;;;;10341212;28;20592;-79
2022/11/11 10:32:19;;;;;;;14.20;13.10;;;11.70;99.90;;;;;;10344334;28;20211;-79
2022/11/11 10:37:42;;;;;;;14.03;12.83;;;11.70;99.90;;;;;;10338877;28;20199;-80
2022/11/11 10:43:02;;;;;;;13.60;12.30;;;11.80;99.90;;;;;;10338646;28;20215;-80
2022/11/11 10:48:33;;;;;;;13.03;11.93;;;11.80;99.90;;;;;;10320317;28;20191;-80
2022/11/11 10:54:06;;;;;;;11.33;10.23;;;11.90;99.90;;;;;;10332955;28;20644;-81
2022/11/11 10:59:35;;;;;;;12.80;11.70;;;11.90;99.90;;;;;;10337133;28;20248;-80
2022/11/11 11:05:01;;;;;;;12.60;11.50;;;12.00;99.90;;;;;;10337611;28;20491;-81
2022/11/11 11:10:28;;;;;;;13.47;12.57;;;12.10;99.90;;;;;;10336592;28;20698;-80
2022/11/11 11:15:56;;;;;;;13.73;12.60;;;12.10;99.90;;;;;;10318726;28;20730;-80
2022/11/11 11:21:18;;;;;;;12.13;11.17;;;12.20;99.90;;;;;;10255974;28;20248;-81
2022/11/11 11:26:45;;;;;;;14.57;13.30;;;12.20;99.90;;;;;;10336185;28;20322;-80
2022/11/11 11:32:14;;;;;;;14.70;13.50;;;12.20;99.90;;;;;;10336510;28;20238;-81
2022/11/11 11:37:49;;;;;;;14.07;12.73;;;12.20;99.90;;;;;;10336842;28;20192;-80
2022/11/11 11:43:25;;;;;;;14.80;13.60;;;12.20;99.90;;;;;;10337480;28;20532;-80
2022/11/11 11:49:07;;;;;;;14.20;13.20;;;12.20;99.90;;;;;;10341752;28;20250;-80
2022/11/11 11:54:46;;;;;;;15.03;13.83;;;12.20;99.90;;;;;;10337868;28;20198;-80
2022/11/11 12:00:16;;;;;;;13.90;12.90;;;12.20;99.90;;;;;;10338046;28;20235;-80
2022/11/11 12:05:41;;;;;;;15.20;14.00;;;12.20;99.90;;;;;;10336223;28;20668;-80
2022/11/11 12:11:13;;;;;;;14.97;13.70;;;12.30;99.90;;;;;;10318223;28;20573;-80
2022/11/11 12:16:40;;;;;;;16.23;12.90;;;12.40;99.90;;;;;;10337914;28;20236;-79
2022/11/11 12:22:22;;;;;;;15.93;14.00;;;12.40;99.90;;;;;;10341592;28;20214;-80
2022/11/11 12:27:56;;;;;;;13.63;12.43;;;12.50;99.90;;;;;;10266708;28;20203;-81
2022/11/11 12:33:51;;;;;;;13.50;12.10;;;12.50;99.90;;;;;;10318388;28;20219;-81
2022/11/11 12:39:36;;;;;;;12.30;11.30;;;12.60;99.90;;;;;;10328307;28;20298;-81
2022/11/11 12:45:07;;;;;;;11.20;10.30;;;12.60;99.90;;;;;;10335461;28;20191;-81
2022/11/11 12:50:36;;;;;;;10.23;9.43;;;12.80;99.90;;;;;;10318531;28;20222;-81
2022/11/11 12:56:06;;;;;;;10.23;9.43;;;12.90;99.90;;;;;;10349738;28;20187;-81
2022/11/11 13:01:43;;;;;;;10.53;9.50;;;12.90;99.90;;;;;;10334753;28;20687;-81
2022/11/11 13:07:37;;;;;;;8.90;8.20;;;13.00;99.90;;;;;;10334588;28;20194;-80
2022/11/11 13:13:09;;;;;;;11.33;10.40;;;13.10;99.90;;;;;;10335079;28;20699;-80
2022/11/11 13:18:42;;;;;;;13.57;12.47;;;13.10;99.90;;;;;;10245849;28;20192;-81
2022/11/11 13:24:04;;;;;;;12.97;11.80;;;13.20;99.90;;;;;;10334111;28;20190;-80
2022/11/11 13:30:06;;;;;;;12.57;11.50;;;13.20;99.90;;;;;;10315741;28;20604;-81
2022/11/11 13:35:31;;;;;;;14.00;12.90;;;13.30;99.90;;;;;;10333003;28;20226;-80
2022/11/11 13:40:54;;;;;;;13.37;12.17;;;13.30;99.90;;;;;;10332796;28;20223;-81
2022/11/11 13:46:32;;;;;;;12.93;12.03;;;13.30;99.90;;;;;;10331993;28;20685;-81
2022/11/11 13:52:01;;;;;;;11.17;10.20;;;13.30;99.90;;;;;;10332179;28;20333;-81
2022/11/11 13:57:25;;;;;;;11.87;10.77;;;13.30;99.90;;;;;;10331687;28;20195;-80
2022/11/11 14:02:46;;;;;;;13.63;12.43;;;13.30;99.90;;;;;;10338063;28;20346;-80
2022/11/11 14:08:30;;;;;;;11.80;11.00;;;13.30;99.90;;;;;;10322445;28;20202;-80
2022/11/11 14:13:54;;;;;;;11.20;10.20;;;13.30;99.90;;;;;;10339904;28;20199;-81
2022/11/11 14:19:31;;;;;;;11.90;11.00;;;13.20;99.90;;;;;;10260502;28;20303;-80
2022/11/11 14:24:52;;;;;;;14.13;11.57;;;13.20;99.90;;;;;;10339432;28;20199;-81
2022/11/11 14:30:29;;;;;;;10.67;9.70;;;13.20;99.90;;;;;;10341471;28;20293;-80
2022/11/11 14:36:01;;;;;;;11.73;10.60;;;13.20;99.90;;;;;;10339009;28;20278;-81
2022/11/11 14:41:47;;;;;;;10.13;9.43;;;13.20;99.90;;;;;;10319264;28;20231;-80
2022/11/11 14:47:36;;;;;;;12.23;11.20;;;13.30;99.90;;;;;;10339694;28;20575;-80
2022/11/11 14:52:59;;;;;;;11.17;10.20;;;13.30;99.90;;;;;;10324606;28;20223;-79
2022/11/11 14:58:23;;;;;;;10.30;9.40;;;13.30;99.90;;;;;;10325727;28;20346;-80
2022/11/11 15:03:48;;;;;;;10.87;9.80;;;13.30;99.90;;;;;;10295706;28;20223;-80
2022/11/11 15:09:28;;;;;;;11.73;9.60;;;13.20;99.90;;;;;;10313212;28;20247;-80
2022/11/11 15:14:57;;;;;;;10.33;8.97;;;13.10;99.90;;;;;;10290965;28;20212;-80
2022/11/11 15:20:31;;;;;;;10.33;9.43;;;13.10;99.90;;;;;;10319953;28;20337;-80
2022/11/11 15:26:00;;;;;;;11.00;10.17;;;12.90;99.90;;;;;;10306961;28;20296;-80
2022/11/11 15:31:25;;;;;;;10.57;9.87;;;12.90;99.90;;;;;;10314074;28;20207;-79
2022/11/11 15:36:54;;;;;;;10.53;9.63;;;12.80;99.90;;;;;;10295389;28;20571;-80
2022/11/11 15:42:25;;;;;;;10.87;9.97;;;12.70;99.90;;;;;;10284606;28;20571;-81
2022/11/11 15:47:47;;;;;;;10.90;10.10;;;12.60;99.90;;;;;;10286256;28;20656;-80
2022/11/11 15:53:14;;;;;;;9.47;8.83;;;12.50;99.90;;;;;;10282110;28;20224;-79
2022/11/11 15:58:34;;;;;;;9.40;8.60;;;12.40;99.90;;;;;;10283105;28;20213;-79
2022/11/11 16:03:56;;;;;;;11.00;10.20;;;12.30;99.90;;;;;;10284641;28;20188;-81
2022/11/11 16:09:24;;;;;;;8.70;7.90;;;12.20;99.90;;;;;;10281841;28;20275;-80
2022/11/11 16:14:48;;;;;;;9.83;8.93;;;12.10;99.90;;;;;;10302731;28;20754;-81
2022/11/11 16:20:15;;;;;;;9.83;9.10;;;12.00;99.90;;;;;;10293387;28;20263;-81
2022/11/11 16:25:38;;;;;;;10.77;9.87;;;11.90;99.90;;;;;;10307164;28;20203;-81
2022/11/11 16:30:58;;;;;;;9.57;8.63;;;11.90;99.90;;;;;;10310095;28;20242;-81
2022/11/11 16:36:20;;;;;;;19.77;17.77;;;11.80;99.90;;;;;;10297242;28;20218;-80
2022/11/11 16:41:42;;;;;;;11.23;10.23;;;11.70;99.90;;;;;;10273494;28;20288;-81
2022/11/11 16:47:05;;;;;;;10.70;9.90;;;11.70;99.90;;;;;;10272623;28;20223;-82
2022/11/11 16:52:27;;;;;;;10.27;9.43;;;11.60;99.90;;;;;;10274832;28;20241;-81
2022/11/11 16:57:50;;;;;;;9.20;8.40;;;11.50;99.90;;;;;;10289432;28;20205;-80
2022/11/11 17:03:13;;;;;;;10.93;10.17;;;11.50;99.90;;;;;;10275398;28;20235;-81
2022/11/11 17:08:36;;;;;;;10.23;9.43;;;11.50;99.90;;;;;;10280678;28;20670;-80
2022/11/11 17:13:58;;;;;;;11.40;10.27;;;11.40;99.90;;;;;;10297410;28;20262;-80
2022/11/11 17:19:20;;;;;;;8.53;7.63;;;11.40;99.90;;;;;;10285892;28;20618;-80
2022/11/11 17:24:41;;;;;;;11.90;10.60;;;11.40;99.90;;;;;;10303877;28;20206;-80
2022/11/11 17:30:03;;;;;;;12.27;11.13;;;11.30;99.90;;;;;;10286844;28;20208;-80
2022/11/11 17:35:23;;;;;;;15.27;13.90;;;11.30;99.90;;;;;;10299447;28;20196;-79
2022/11/11 17:40:45;;;;;;;15.87;14.27;;;11.30;99.90;;;;;;10320284;28;20215;-79
2022/11/11 17:46:07;;;;;;;20.40;18.50;;;11.20;99.90;;;;;;10308548;28;20280;-79
2022/11/11 17:51:28;;;;;;;31.03;22.30;;;11.20;99.90;;;;;;10318552;28;20235;-79
2022/11/11 17:56:48;;;;;;;24.20;21.60;;;11.20;99.90;;;;;;10308875;28;20203;-79
2022/11/11 18:02:12;;;;;;;21.33;19.20;;;11.20;99.90;;;;;;10293562;28;20223;-79
2022/11/11 18:07:33;;;;;;;24.00;21.50;;;11.10;99.90;;;;;;10301313;28;20196;-80
2022/11/11 18:12:53;;;;;;;19.13;17.63;;;11.10;99.90;;;;;;10286127;28;20291;-80
2022/11/11 18:18:15;;;;;;;18.33;16.63;;;11.10;99.90;;;;;;10269995;28;20287;-79
2022/11/11 18:23:38;;;;;;;15.13;13.13;;;11.10;99.90;;;;;;10301691;28;20715;-80
2022/11/11 18:28:59;;;;;;;14.20;12.90;;;11.00;99.90;;;;;;10285826;28;20188;-80
2022/11/11 18:34:21;;;;;;;16.23;14.83;;;11.00;99.90;;;;;;10293427;28;20200;-80
2022/11/11 18:39:42;;;;;;;13.53;12.13;;;11.00;99.90;;;;;;10295131;28;20226;-80
2022/11/11 18:45:02;;;;;;;15.03;13.70;;;11.00;99.90;;;;;;10293109;28;20197;-80
2022/11/11 18:50:24;;;;;;;14.87;13.50;;;11.00;99.90;;;;;;10284686;28;20222;-80
2022/11/11 18:55:45;;;;;;;17.77;16.27;;;11.00;99.90;;;;;;10281529;28;20766;-79
2022/11/11 19:01:08;;;;;;;16.63;15.10;;;10.90;99.90;;;;;;10295720;28;20214;-79
2022/11/11 19:06:31;;;;;;;14.93;13.63;;;10.90;99.90;;;;;;10294995;28;20195;-79
2022/11/11 19:11:52;;;;;;;16.07;14.57;;;10.90;99.90;;;;;;10304068;28;20599;-79
2022/11/11 19:17:13;;;;;;;12.53;11.47;;;10.80;99.90;;;;;;10285157;28;20569;-79
2022/11/11 19:22:35;;;;;;;16.20;14.80;;;10.80;99.90;;;;;;10284908;28;20220;-80
2022/11/11 19:27:55;;;;;;;15.50;14.40;;;10.70;99.90;;;;;;10326323;28;20203;-80
2022/11/11 19:33:16;;;;;;;14.00;12.80;;;10.70;99.90;;;;;;10309156;28;20224;-79
2022/11/11 19:38:39;;;;;;;12.50;11.43;;;10.70;99.90;;;;;;10292103;28;20667;-79
2022/11/11 19:44:00;;;;;;;14.00;13.00;;;10.70;99.90;;;;;;10290581;28;20224;-80
2022/11/11 19:49:21;;;;;;;14.03;12.93;;;10.70;99.90;;;;;;10293305;28;20290;-80
2022/11/11 19:54:42;;;;;;;16.50;15.00;;;10.70;99.90;;;;;;10286345;28;20195;-80
2022/11/11 20:00:06;;;;;;;14.93;13.73;;;10.70;99.90;;;;;;10282812;28;20216;-80
2022/11/11 20:05:27;;;;;;;14.97;13.57;;;10.60;99.90;;;;;;10284600;28;20195;-79
2022/11/11 20:10:49;;;;;;;16.30;14.70;;;10.60;99.90;;;;;;10307309;28;20215;-80
2022/11/11 20:16:10;;;;;;;14.53;13.33;;;10.60;99.90;;;;;;10303723;28;20196;-79
2022/11/11 20:21:31;;;;;;;13.60;12.50;;;10.60;99.90;;;;;;10304640;28;20281;-79
2022/11/11 20:26:53;;;;;;;15.17;13.97;;;10.50;99.90;;;;;;10275667;28;20204;-79
2022/11/11 20:32:15;;;;;;;14.80;13.50;;;10.50;99.90;;;;;;10312347;28;20216;-79
2022/11/11 20:37:36;;;;;;;14.53;13.43;;;10.50;99.90;;;;;;10302442;28;20204;-79
2022/11/11 20:43:00;;;;;;;14.83;13.60;;;10.50;99.90;;;;;;10299817;28;20219;-79
2022/11/11 20:48:21;;;;;;;15.17;13.90;;;10.50;99.90;;;;;;10282174;28;20203;-80
2022/11/11 20:53:41;;;;;;;14.40;13.20;;;10.50;99.90;;;;;;10298354;28;20693;-80
2022/11/11 20:59:03;;;;;;;13.27;12.37;;;10.40;99.90;;;;;;10266227;28;20229;-80
2022/11/11 21:04:24;;;;;;;14.30;13.10;;;10.30;99.90;;;;;;10307167;28;20758;-80
2022/11/11 21:09:45;;;;;;;14.23;13.10;;;10.30;99.90;;;;;;10291280;28;20279;-80
2022/11/11 21:15:08;;;;;;;13.80;12.50;;;10.30;99.90;;;;;;10309968;28;20200;-80
2022/11/11 21:20:29;;;;;;;15.63;14.30;;;10.20;99.90;;;;;;10316624;28;20232;-79
2022/11/11 21:25:50;;;;;;;13.77;12.53;;;10.20;99.90;;;;;;10303058;28;20196;-80
2022/11/11 21:31:16;;;;;;;13.23;12.23;;;10.10;99.90;;;;;;10298135;28;20283;-80
2022/11/11 21:36:38;;;;;;;13.37;12.27;;;10.10;99.90;;;;;;10294396;28;20207;-80
2022/11/11 21:41:59;;;;;;;14.10;12.40;;;10.00;99.90;;;;;;10311259;28;20225;-80
2022/11/11 21:47:21;;;;;;;15.63;14.33;;;10.00;99.90;;;;;;10302639;28;20221;-80
2022/11/11 21:52:42;;;;;;;16.30;14.90;;;9.90;99.90;;;;;;10298286;28;20266;-80
2022/11/11 21:58:02;;;;;;;18.83;17.23;;;10.00;99.90;;;;;;10305850;28;20797;-80
2022/11/11 22:03:24;;;;;;;17.97;16.17;;;9.90;99.90;;;;;;10307390;28;20313;-80
2022/11/11 22:08:46;;;;;;;15.20;13.90;;;9.90;99.90;;;;;;10288476;28;20200;-79
2022/11/11 22:14:07;;;;;;;16.27;14.83;;;9.90;99.90;;;;;;10294915;28;20216;-79
2022/11/11 22:19:29;;;;;;;20.20;17.40;;;9.90;99.90;;;;;;10303635;28;20723;-80
2022/11/11 22:24:50;;;;;;;20.20;14.33;;;9.90;99.90;;;;;;10301220;28;20227;-80
2022/11/11 22:30:11;;;;;;;15.07;13.67;;;9.90;99.90;;;;;;10311513;28;20262;-80
2022/11/11 22:35:33;;;;;;;13.80;12.80;;;9.90;99.90;;;;;;10318991;28;20282;-80
2022/11/11 22:40:54;;;;;;;19.50;17.50;;;9.80;99.90;;;;;;10318300;28;20591;-80
2022/11/11 22:46:17;;;;;;;15.73;14.30;;;9.80;99.90;;;;;;10318610;28;20287;-80
2022/11/11 22:51:42;;;;;;;14.80;13.70;;;9.80;99.90;;;;;;10305322;28;20607;-81
2022/11/11 22:57:03;;;;;;;16.07;14.70;;;9.70;99.90;;;;;;10310808;28;20219;-81
2022/11/11 23:02:24;;;;;;;14.80;13.53;;;9.70;99.90;;;;;;10310835;28;20274;-81
2022/11/11 23:07:46;;;;;;;15.77;14.27;;;9.70;99.90;;;;;;10308567;28;20537;-81
2022/11/11 23:13:07;;;;;;;15.23;13.83;;;9.60;99.90;;;;;;10292655;28;20684;-81
2022/11/11 23:18:28;;;;;;;14.60;13.37;;;9.60;99.90;;;;;;10309385;28;20222;-81
2022/11/11 23:23:52;;;;;;;14.73;13.60;;;9.60;99.90;;;;;;10315662;28;20691;-81
2022/11/11 23:29:14;;;;;;;15.70;14.40;;;9.60;99.90;;;;;;10296961;28;20219;-81
2022/11/11 23:34:34;;;;;;;19.47;17.83;;;9.60;99.90;;;;;;10301885;28;20199;-81
2022/11/11 23:40:01;;;;;;;15.47;14.10;;;9.60;99.90;;;;;;10307894;28;20306;-80
2022/11/11 23:45:22;;;;;;;16.23;14.83;;;9.60;99.90;;;;;;10296445;28;20200;-81
2022/11/11 23:50:42;;;;;;;14.03;12.93;;;9.60;99.90;;;;;;10310639;28;20211;-80
2022/11/11 23:56:05;;;;;;;14.00;12.90;;;9.60;99.90;;;;;;10308060;28;20206;-80
